sensor_id;sensor_type;location;lat;lon;timestamp;temperature;humidity
13711;DHT22;6927;51.256;9.410;2023-06-26T00:02:11;18.40;99.90
13711;DHT22;6927;51.256;9.410;2023-06-26T00:04:37;18.40;99.90
13711;DHT22;6927;51.256;9.410;2023-06-26T00:07:06;18.40;99.90
13711;DHT22;6927;51.256;9.410;2023-06-26T00:09:32;18.30;99.90
13711;DHT22;6927;51.256;9.410;2023-06-26T00:11:57;18.30;99.90
13711;DHT22;6927;51.256;9.410;2023-06-26T00:14:24;18.20;99.90
13711;DHT22;6927;51.256;9.410;2023-06-26T00:16:51;18.20;99.90
13711;DHT22;6927;51.256;9.410;2023-06-26T00:19:17;18.20;99.90
13711;DHT22;6927;51.256;9.410;2023-06-26T00:21:43;18.10;99.90
13711;DHT22;6927;51.256;9.410;2023-06-26T00:24:17;18.10;99.90
13711;DHT22;6927;51.256;9.410;2023-06-26T00:26:45;18.10;99.90
13711;DHT22;6927;51.256;9.410;2023-06-26T00:29:12;18.00;99.90
13711;DHT22;6927;51.256;9.410;2023-06-26T00:31:38;18.00;99.90
13711;DHT22;6927;51.256;9.410;2023-06-26T00:34:05;17.90;99.90
13711;DHT22;6927;51.256;9.410;2023-06-26T00:36:31;17.90;99.90
13711;DHT22;6927;51.256;9.410;2023-06-26T00:38:56;17.80;99.90
13711;DHT22;6927;51.256;9.410;2023-06-26T00:41:22;17.80;99.90
13711;DHT22;6927;51.256;9.410;2023-06-26T00:43:48;17.80;99.90
13711;DHT22;6927;51.256;9.410;2023-06-26T00:46:14;17.70;99.90
13711;DHT22;6927;51.256;9.410;2023-06-26T00:48:41;17.70;99.90
13711;DHT22;6927;51.256;9.410;2023-06-26T00:51:07;17.70;99.90
13711;DHT22;6927;51.256;9.410;2023-06-26T00:53:33;17.60;99.90
13711;DHT22;6927;51.256;9.410;2023-06-26T00:55:59;17.50;99.90
13711;DHT22;6927;51.256;9.410;2023-06-26T00:58:26;17.50;99.90
13711;DHT22;6927;51.256;9.410;2023-06-26T01:00:52;17.50;99.90
13711;DHT22;6927;51.256;9.410;2023-06-26T01:03:19;17.40;99.90
13711;DHT22;6927;51.256;9.410;2023-06-26T01:05:45;17.30;99.90
13711;DHT22;6927;51.256;9.410;2023-06-26T01:08:12;17.20;99.90
13711;DHT22;6927;51.256;9.410;2023-06-26T01:10:39;17.20;99.90
13711;DHT22;6927;51.256;9.410;2023-06-26T01:13:05;17.20;99.90
13711;DHT22;6927;51.256;9.410;2023-06-26T01:15:30;17.10;99.90
13711;DHT22;6927;51.256;9.410;2023-06-26T01:17:57;17.00;99.90
13711;DHT22;6927;51.256;9.410;2023-06-26T01:20:34;17.00;99.90
13711;DHT22;6927;51.256;9.410;2023-06-26T01:28:20;16.80;99.90
13711;DHT22;6927;51.256;9.410;2023-06-26T01:30:46;16.80;99.90
13711;DHT22;6927;51.256;9.410;2023-06-26T01:33:13;16.80;99.90
13711;DHT22;6927;51.256;9.410;2023-06-26T01:35:40;16.70;99.90
13711;DHT22;6927;51.256;9.410;2023-06-26T01:38:34;16.70;99.90
13711;DHT22;6927;51.256;9.410;2023-06-26T01:41:00;16.70;99.90
13711;DHT22;6927;51.256;9.410;2023-06-26T01:43:46;16.70;99.90
13711;DHT22;6927;51.256;9.410;2023-06-26T01:46:38;16.70;99.90
13711;DHT22;6927;51.256;9.410;2023-06-26T01:51:47;16.70;99.90
13711;DHT22;6927;51.256;9.410;2023-06-26T01:54:18;16.70;99.90
13711;DHT22;6927;51.256;9.410;2023-06-26T01:56:49;16.70;99.90
13711;DHT22;6927;51.256;9.410;2023-06-26T01:59:14;16.60;99.90
13711;DHT22;6927;51.256;9.410;2023-06-26T02:01:40;16.60;99.90
13711;DHT22;6927;51.256;9.410;2023-06-26T02:04:06;16.60;99.90
13711;DHT22;6927;51.256;9.410;2023-06-26T02:06:31;16.60;99.90
13711;DHT22;6927;51.256;9.410;2023-06-26T02:08:57;16.60;99.90
13711;DHT22;6927;51.256;9.410;2023-06-26T02:11:23;16.60;99.90
13711;DHT22;6927;51.256;9.410;2023-06-26T02:13:49;16.60;99.90
13711;DHT22;6927;51.256;9.410;2023-06-26T02:16:14;16.60;99.90
13711;DHT22;6927;51.256;9.410;2023-06-26T02:18:40;16.60;99.90
13711;DHT22;6927;51.256;9.410;2023-06-26T02:21:06;16.60;99.90
13711;DHT22;6927;51.256;9.410;2023-06-26T02:23:31;16.50;99.90
13711;DHT22;6927;51.256;9.410;2023-06-26T02:25:57;16.50;99.90
13711;DHT22;6927;51.256;9.410;2023-06-26T02:28:23;16.50;99.90
13711;DHT22;6927;51.256;9.410;2023-06-26T02:30:48;16.50;99.90
13711;DHT22;6927;51.256;9.410;2023-06-26T02:33:14;16.50;99.90
13711;DHT22;6927;51.256;9.410;2023-06-26T02:35:39;16.50;99.90
13711;DHT22;6927;51.256;9.410;2023-06-26T02:38:05;16.50;99.90
13711;DHT22;6927;51.256;9.410;2023-06-26T02:40:30;16.40;99.90
13711;DHT22;6927;51.256;9.410;2023-06-26T02:42:56;16.40;99.90
13711;DHT22;6927;51.256;9.410;2023-06-26T02:45:21;16.40;99.90
13711;DHT22;6927;51.256;9.410;2023-06-26T02:47:47;16.30;99.90
13711;DHT22;6927;51.256;9.410;2023-06-26T02:50:12;16.30;99.90
13711;DHT22;6927;51.256;9.410;2023-06-26T02:52:38;16.30;99.90
13711;DHT22;6927;51.256;9.410;2023-06-26T02:55:04;16.30;99.90
13711;DHT22;6927;51.256;9.410;2023-06-26T02:57:30;16.30;99.90
13711;DHT22;6927;51.256;9.410;2023-06-26T02:59:56;16.30;99.90
13711;DHT22;6927;51.256;9.410;2023-06-26T03:02:21;16.30;99.90
13711;DHT22;6927;51.256;9.410;2023-06-26T03:04:47;16.30;99.90
13711;DHT22;6927;51.256;9.410;2023-06-26T03:07:13;16.30;99.90
13711;DHT22;6927;51.256;9.410;2023-06-26T03:09:38;16.30;99.90
13711;DHT22;6927;51.256;9.410;2023-06-26T03:12:04;16.30;99.90
13711;DHT22;6927;51.256;9.410;2023-06-26T03:14:30;16.30;99.90
13711;DHT22;6927;51.256;9.410;2023-06-26T03:16:57;16.30;99.90
13711;DHT22;6927;51.256;9.410;2023-06-26T03:19:24;16.30;99.90
13711;DHT22;6927;51.256;9.410;2023-06-26T03:21:49;16.30;99.90
13711;DHT22;6927;51.256;9.410;2023-06-26T03:24:15;16.30;99.90
13711;DHT22;6927;51.256;9.410;2023-06-26T03:26:41;16.30;99.90
13711;DHT22;6927;51.256;9.410;2023-06-26T03:29:06;16.30;99.90
13711;DHT22;6927;51.256;9.410;2023-06-26T03:31:32;16.30;99.90
13711;DHT22;6927;51.256;9.410;2023-06-26T03:33:57;16.30;99.90
13711;DHT22;6927;51.256;9.410;2023-06-26T03:36:23;16.30;99.90
13711;DHT22;6927;51.256;9.410;2023-06-26T03:38:48;16.30;99.90
13711;DHT22;6927;51.256;9.410;2023-06-26T03:41:14;16.30;99.90
13711;DHT22;6927;51.256;9.410;2023-06-26T03:43:39;16.30;99.90
13711;DHT22;6927;51.256;9.410;2023-06-26T03:46:05;16.30;99.90
13711;DHT22;6927;51.256;9.410;2023-06-26T03:48:30;16.30;99.90
13711;DHT22;6927;51.256;9.410;2023-06-26T03:50:56;16.30;99.90
13711;DHT22;6927;51.256;9.410;2023-06-26T03:53:22;16.40;99.90
13711;DHT22;6927;51.256;9.410;2023-06-26T03:55:47;16.40;99.90
13711;DHT22;6927;51.256;9.410;2023-06-26T03:58:13;16.40;99.90
13711;DHT22;6927;51.256;9.410;2023-06-26T04:00:38;16.50;99.90
13711;DHT22;6927;51.256;9.410;2023-06-26T04:03:05;16.50;99.90
13711;DHT22;6927;51.256;9.410;2023-06-26T04:05:31;16.50;99.90
13711;DHT22;6927;51.256;9.410;2023-06-26T04:07:56;16.60;99.90
13711;DHT22;6927;51.256;9.410;2023-06-26T04:10:22;16.60;99.90
13711;DHT22;6927;51.256;9.410;2023-06-26T04:12:47;16.60;99.90
13711;DHT22;6927;51.256;9.410;2023-06-26T04:15:13;16.70;99.90
13711;DHT22;6927;51.256;9.410;2023-06-26T04:17:39;16.70;99.90
13711;DHT22;6927;51.256;9.410;2023-06-26T04:20:05;16.80;99.90
13711;DHT22;6927;51.256;9.410;2023-06-26T04:22:34;16.80;99.90
13711;DHT22;6927;51.256;9.410;2023-06-26T04:25:03;16.90;99.90
13711;DHT22;6927;51.256;9.410;2023-06-26T04:27:28;17.00;99.90
13711;DHT22;6927;51.256;9.410;2023-06-26T04:29:54;17.10;99.90
13711;DHT22;6927;51.256;9.410;2023-06-26T04:32:19;17.20;99.90
13711;DHT22;6927;51.256;9.410;2023-06-26T04:34:45;17.30;99.90
13711;DHT22;6927;51.256;9.410;2023-06-26T04:37:10;17.30;99.90
13711;DHT22;6927;51.256;9.410;2023-06-26T04:39:37;17.40;99.90
13711;DHT22;6927;51.256;9.410;2023-06-26T04:42:03;17.50;99.90
13711;DHT22;6927;51.256;9.410;2023-06-26T04:44:29;17.60;99.90
13711;DHT22;6927;51.256;9.410;2023-06-26T04:46:54;17.70;99.90
13711;DHT22;6927;51.256;9.410;2023-06-26T04:49:20;17.80;99.90
13711;DHT22;6927;51.256;9.410;2023-06-26T04:51:45;17.90;99.90
13711;DHT22;6927;51.256;9.410;2023-06-26T04:54:11;18.00;99.90
13711;DHT22;6927;51.256;9.410;2023-06-26T04:56:37;18.10;99.90
13711;DHT22;6927;51.256;9.410;2023-06-26T04:59:05;18.20;99.90
13711;DHT22;6927;51.256;9.410;2023-06-26T05:01:31;18.40;99.90
13711;DHT22;6927;51.256;9.410;2023-06-26T05:04:00;18.50;99.90
13711;DHT22;6927;51.256;9.410;2023-06-26T05:06:26;18.60;99.90
13711;DHT22;6927;51.256;9.410;2023-06-26T05:08:51;18.80;99.90
13711;DHT22;6927;51.256;9.410;2023-06-26T05:11:17;18.90;99.90
13711;DHT22;6927;51.256;9.410;2023-06-26T05:13:42;19.00;99.90
13711;DHT22;6927;51.256;9.410;2023-06-26T05:16:09;19.20;99.90
13711;DHT22;6927;51.256;9.410;2023-06-26T05:18:35;19.30;99.90
13711;DHT22;6927;51.256;9.410;2023-06-26T05:21:01;19.40;99.90
13711;DHT22;6927;51.256;9.410;2023-06-26T05:23:27;19.50;99.90
13711;DHT22;6927;51.256;9.410;2023-06-26T05:25:55;19.60;99.90
13711;DHT22;6927;51.256;9.410;2023-06-26T05:28:22;19.70;99.90
13711;DHT22;6927;51.256;9.410;2023-06-26T05:30:50;19.90;99.90
13711;DHT22;6927;51.256;9.410;2023-06-26T05:33:18;20.00;99.90
13711;DHT22;6927;51.256;9.410;2023-06-26T05:35:48;20.10;99.90
13711;DHT22;6927;51.256;9.410;2023-06-26T05:38:14;20.20;99.90
13711;DHT22;6927;51.256;9.410;2023-06-26T05:40:40;20.40;99.90
13711;DHT22;6927;51.256;9.410;2023-06-26T05:43:07;20.40;99.90
13711;DHT22;6927;51.256;9.410;2023-06-26T05:45:32;20.50;99.90
13711;DHT22;6927;51.256;9.410;2023-06-26T05:47:58;20.60;99.90
13711;DHT22;6927;51.256;9.410;2023-06-26T05:50:24;20.80;99.90
13711;DHT22;6927;51.256;9.410;2023-06-26T05:52:51;20.90;99.90
13711;DHT22;6927;51.256;9.410;2023-06-26T05:55:16;20.90;99.90
13711;DHT22;6927;51.256;9.410;2023-06-26T05:57:43;21.00;99.90
13711;DHT22;6927;51.256;9.410;2023-06-26T06:00:11;21.00;99.90
13711;DHT22;6927;51.256;9.410;2023-06-26T06:02:37;21.00;99.90
13711;DHT22;6927;51.256;9.410;2023-06-26T06:05:03;21.10;99.90
13711;DHT22;6927;51.256;9.410;2023-06-26T06:07:30;21.20;99.90
13711;DHT22;6927;51.256;9.410;2023-06-26T06:09:56;21.30;99.90
13711;DHT22;6927;51.256;9.410;2023-06-26T06:12:21;21.40;99.90
13711;DHT22;6927;51.256;9.410;2023-06-26T06:14:47;21.50;99.90
13711;DHT22;6927;51.256;9.410;2023-06-26T06:17:12;21.50;99.90
13711;DHT22;6927;51.256;9.410;2023-06-26T06:19:38;21.60;99.90
13711;DHT22;6927;51.256;9.410;2023-06-26T06:22:03;21.60;99.90
13711;DHT22;6927;51.256;9.410;2023-06-26T06:24:29;21.80;99.90
13711;DHT22;6927;51.256;9.410;2023-06-26T06:26:54;22.00;99.90
13711;DHT22;6927;51.256;9.410;2023-06-26T06:29:20;22.00;99.90
13711;DHT22;6927;51.256;9.410;2023-06-26T06:31:45;22.10;99.90
13711;DHT22;6927;51.256;9.410;2023-06-26T06:34:11;22.10;99.90
13711;DHT22;6927;51.256;9.410;2023-06-26T06:36:38;22.30;99.90
13711;DHT22;6927;51.256;9.410;2023-06-26T06:39:03;22.50;99.90
13711;DHT22;6927;51.256;9.410;2023-06-26T06:41:29;22.80;99.90
13711;DHT22;6927;51.256;9.410;2023-06-26T06:43:54;23.10;99.90
13711;DHT22;6927;51.256;9.410;2023-06-26T06:46:20;23.40;99.90
13711;DHT22;6927;51.256;9.410;2023-06-26T06:48:45;24.00;99.90
13711;DHT22;6927;51.256;9.410;2023-06-26T06:51:12;24.60;99.90
13711;DHT22;6927;51.256;9.410;2023-06-26T06:53:38;25.00;99.90
13711;DHT22;6927;51.256;9.410;2023-06-26T06:56:03;25.40;99.90
13711;DHT22;6927;51.256;9.410;2023-06-26T06:58:29;26.00;99.90
13711;DHT22;6927;51.256;9.410;2023-06-26T07:00:56;26.20;99.90
13711;DHT22;6927;51.256;9.410;2023-06-26T07:03:21;26.50;99.90
13711;DHT22;6927;51.256;9.410;2023-06-26T07:05:47;27.10;99.90
13711;DHT22;6927;51.256;9.410;2023-06-26T07:08:12;27.60;99.90
13711;DHT22;6927;51.256;9.410;2023-06-26T07:10:38;27.70;99.90
13711;DHT22;6927;51.256;9.410;2023-06-26T07:13:04;28.10;99.90
13711;DHT22;6927;51.256;9.410;2023-06-26T07:15:30;28.30;99.90
13711;DHT22;6927;51.256;9.410;2023-06-26T07:17:56;28.50;99.90
13711;DHT22;6927;51.256;9.410;2023-06-26T07:20:21;28.80;99.90
13711;DHT22;6927;51.256;9.410;2023-06-26T07:22:48;28.90;99.90
13711;DHT22;6927;51.256;9.410;2023-06-26T07:25:13;29.00;99.90
13711;DHT22;6927;51.256;9.410;2023-06-26T07:27:40;28.70;99.90
13711;DHT22;6927;51.256;9.410;2023-06-26T07:30:07;29.00;99.90
13711;DHT22;6927;51.256;9.410;2023-06-26T07:32:44;29.20;99.90
13711;DHT22;6927;51.256;9.410;2023-06-26T07:35:18;29.70;99.90
13711;DHT22;6927;51.256;9.410;2023-06-26T07:37:46;30.20;99.90
13711;DHT22;6927;51.256;9.410;2023-06-26T07:40:12;30.10;99.90
13711;DHT22;6927;51.256;9.410;2023-06-26T07:42:38;30.40;99.90
13711;DHT22;6927;51.256;9.410;2023-06-26T07:45:05;30.10;99.90
13711;DHT22;6927;51.256;9.410;2023-06-26T07:47:36;29.60;99.90
13711;DHT22;6927;51.256;9.410;2023-06-26T07:50:01;29.90;99.90
13711;DHT22;6927;51.256;9.410;2023-06-26T07:52:27;29.70;99.90
13711;DHT22;6927;51.256;9.410;2023-06-26T07:54:52;29.40;99.90
13711;DHT22;6927;51.256;9.410;2023-06-26T07:57:18;29.50;99.90
13711;DHT22;6927;51.256;9.410;2023-06-26T07:59:43;29.80;99.90
13711;DHT22;6927;51.256;9.410;2023-06-26T08:02:09;29.50;99.90
13711;DHT22;6927;51.256;9.410;2023-06-26T08:04:35;29.80;99.90
13711;DHT22;6927;51.256;9.410;2023-06-26T08:07:01;30.00;99.90
13711;DHT22;6927;51.256;9.410;2023-06-26T08:09:28;29.90;99.90
13711;DHT22;6927;51.256;9.410;2023-06-26T08:11:54;29.70;99.90
13711;DHT22;6927;51.256;9.410;2023-06-26T08:14:20;29.80;99.90
13711;DHT22;6927;51.256;9.410;2023-06-26T08:16:46;30.40;99.90
13711;DHT22;6927;51.256;9.410;2023-06-26T08:19:13;30.90;99.90
13711;DHT22;6927;51.256;9.410;2023-06-26T08:21:43;30.70;99.90
13711;DHT22;6927;51.256;9.410;2023-06-26T08:24:08;30.30;99.90
13711;DHT22;6927;51.256;9.410;2023-06-26T08:26:35;30.40;99.90
13711;DHT22;6927;51.256;9.410;2023-06-26T08:29:01;30.60;99.90
13711;DHT22;6927;51.256;9.410;2023-06-26T08:31:33;30.80;99.90
13711;DHT22;6927;51.256;9.410;2023-06-26T08:34:00;31.50;99.90
13711;DHT22;6927;51.256;9.410;2023-06-26T08:36:25;31.70;99.90
13711;DHT22;6927;51.256;9.410;2023-06-26T08:38:51;32.00;99.90
13711;DHT22;6927;51.256;9.410;2023-06-26T08:41:16;32.40;99.90
13711;DHT22;6927;51.256;9.410;2023-06-26T08:43:45;32.80;99.90
13711;DHT22;6927;51.256;9.410;2023-06-26T08:46:11;32.70;99.90
13711;DHT22;6927;51.256;9.410;2023-06-26T08:48:37;32.80;99.90
13711;DHT22;6927;51.256;9.410;2023-06-26T08:51:09;32.60;99.90
13711;DHT22;6927;51.256;9.410;2023-06-26T08:53:48;33.20;99.90
13711;DHT22;6927;51.256;9.410;2023-06-26T08:56:17;33.10;99.90
13711;DHT22;6927;51.256;9.410;2023-06-26T08:58:44;33.50;99.90
13711;DHT22;6927;51.256;9.410;2023-06-26T09:01:10;34.00;99.90
13711;DHT22;6927;51.256;9.410;2023-06-26T09:03:36;34.00;99.90
13711;DHT22;6927;51.256;9.410;2023-06-26T09:06:02;33.30;99.90
13711;DHT22;6927;51.256;9.410;2023-06-26T09:08:28;33.20;99.90
13711;DHT22;6927;51.256;9.410;2023-06-26T09:10:54;33.50;99.90
13711;DHT22;6927;51.256;9.410;2023-06-26T09:13:19;33.20;99.90
13711;DHT22;6927;51.256;9.410;2023-06-26T09:15:46;32.70;99.90
13711;DHT22;6927;51.256;9.410;2023-06-26T09:18:12;32.60;99.90
13711;DHT22;6927;51.256;9.410;2023-06-26T09:20:38;32.10;99.90
13711;DHT22;6927;51.256;9.410;2023-06-26T09:23:04;31.20;99.90
13711;DHT22;6927;51.256;9.410;2023-06-26T09:25:30;30.70;99.90
13711;DHT22;6927;51.256;9.410;2023-06-26T09:27:57;30.20;99.90
13711;DHT22;6927;51.256;9.410;2023-06-26T09:30:22;29.70;99.90
13711;DHT22;6927;51.256;9.410;2023-06-26T09:32:48;29.50;99.90
13711;DHT22;6927;51.256;9.410;2023-06-26T09:35:16;29.40;99.90
13711;DHT22;6927;51.256;9.410;2023-06-26T09:37:42;29.20;99.90
13711;DHT22;6927;51.256;9.410;2023-06-26T09:40:09;28.90;99.90
13711;DHT22;6927;51.256;9.410;2023-06-26T09:42:35;29.00;99.90
13711;DHT22;6927;51.256;9.410;2023-06-26T09:45:02;29.20;99.90
13711;DHT22;6927;51.256;9.410;2023-06-26T09:47:30;29.40;99.90
13711;DHT22;6927;51.256;9.410;2023-06-26T09:49:56;29.50;99.90
13711;DHT22;6927;51.256;9.410;2023-06-26T09:52:26;29.20;99.90
13711;DHT22;6927;51.256;9.410;2023-06-26T09:55:07;29.10;99.90
13711;DHT22;6927;51.256;9.410;2023-06-26T09:57:34;28.90;99.90
13711;DHT22;6927;51.256;9.410;2023-06-26T10:00:00;28.90;99.90
13711;DHT22;6927;51.256;9.410;2023-06-26T10:02:26;28.70;99.90
13711;DHT22;6927;51.256;9.410;2023-06-26T10:04:51;28.60;99.90
13711;DHT22;6927;51.256;9.410;2023-06-26T10:07:17;28.50;99.90
13711;DHT22;6927;51.256;9.410;2023-06-26T10:09:45;28.40;99.90
13711;DHT22;6927;51.256;9.410;2023-06-26T10:12:16;28.10;99.90
13711;DHT22;6927;51.256;9.410;2023-06-26T10:14:43;28.00;99.90
13711;DHT22;6927;51.256;9.410;2023-06-26T10:17:19;28.10;99.90
13711;DHT22;6927;51.256;9.410;2023-06-26T10:19:45;28.20;99.90
13711;DHT22;6927;51.256;9.410;2023-06-26T10:22:15;27.80;99.90
13711;DHT22;6927;51.256;9.410;2023-06-26T10:24:43;27.50;99.90
13711;DHT22;6927;51.256;9.410;2023-06-26T10:27:16;27.20;99.90
13711;DHT22;6927;51.256;9.410;2023-06-26T10:29:43;26.80;99.90
13711;DHT22;6927;51.256;9.410;2023-06-26T10:32:12;26.30;99.90
13711;DHT22;6927;51.256;9.410;2023-06-26T10:34:38;25.50;99.90
13711;DHT22;6927;51.256;9.410;2023-06-26T10:37:04;24.00;99.90
13711;DHT22;6927;51.256;9.410;2023-06-26T10:42:13;22.20;99.90
13711;DHT22;6927;51.256;9.410;2023-06-26T10:44:43;21.70;99.90
13711;DHT22;6927;51.256;9.410;2023-06-26T10:47:09;21.30;99.90
13711;DHT22;6927;51.256;9.410;2023-06-26T10:49:36;21.10;99.90
13711;DHT22;6927;51.256;9.410;2023-06-26T10:52:02;20.90;99.90
13711;DHT22;6927;51.256;9.410;2023-06-26T10:54:32;20.90;99.90
13711;DHT22;6927;51.256;9.410;2023-06-26T10:56:58;21.00;99.90
13711;DHT22;6927;51.256;9.410;2023-06-26T10:59:26;21.20;99.90
13711;DHT22;6927;51.256;9.410;2023-06-26T11:04:43;21.50;99.90
13711;DHT22;6927;51.256;9.410;2023-06-26T11:07:22;21.80;99.90
13711;DHT22;6927;51.256;9.410;2023-06-26T11:10:00;22.20;99.90
13711;DHT22;6927;51.256;9.410;2023-06-26T11:12:43;22.40;99.90
13711;DHT22;6927;51.256;9.410;2023-06-26T11:15:19;22.60;99.90
13711;DHT22;6927;51.256;9.410;2023-06-26T11:17:45;23.40;99.90
13711;DHT22;6927;51.256;9.410;2023-06-26T11:20:15;24.30;99.90
13711;DHT22;6927;51.256;9.410;2023-06-26T11:22:42;24.50;99.90
13711;DHT22;6927;51.256;9.410;2023-06-26T11:25:09;24.60;99.90
13711;DHT22;6927;51.256;9.410;2023-06-26T11:30:08;24.30;99.90
13711;DHT22;6927;51.256;9.410;2023-06-26T11:32:36;24.40;99.90
13711;DHT22;6927;51.256;9.410;2023-06-26T11:35:02;24.40;99.90
13711;DHT22;6927;51.256;9.410;2023-06-26T11:37:30;24.40;99.90
13711;DHT22;6927;51.256;9.410;2023-06-26T11:39:56;24.60;99.90
13711;DHT22;6927;51.256;9.410;2023-06-26T11:42:21;25.10;99.90
13711;DHT22;6927;51.256;9.410;2023-06-26T11:44:47;25.40;99.90
13711;DHT22;6927;51.256;9.410;2023-06-26T11:47:14;25.70;99.90
13711;DHT22;6927;51.256;9.410;2023-06-26T11:49:43;25.90;99.90
13711;DHT22;6927;51.256;9.410;2023-06-26T11:52:08;26.00;99.90
13711;DHT22;6927;51.256;9.410;2023-06-26T11:54:34;26.10;99.90
13711;DHT22;6927;51.256;9.410;2023-06-26T11:56:59;25.70;99.90
13711;DHT22;6927;51.256;9.410;2023-06-26T11:59:39;25.30;99.90
13711;DHT22;6927;51.256;9.410;2023-06-26T12:02:10;24.90;99.90
13711;DHT22;6927;51.256;9.410;2023-06-26T12:04:37;24.90;99.90
13711;DHT22;6927;51.256;9.410;2023-06-26T12:07:05;25.10;99.90
13711;DHT22;6927;51.256;9.410;2023-06-26T12:09:33;25.20;99.90
13711;DHT22;6927;51.256;9.410;2023-06-26T12:11:59;25.10;99.90
13711;DHT22;6927;51.256;9.410;2023-06-26T12:14:26;25.00;99.90
13711;DHT22;6927;51.256;9.410;2023-06-26T12:16:54;24.90;99.90
13711;DHT22;6927;51.256;9.410;2023-06-26T12:19:25;24.90;99.90
13711;DHT22;6927;51.256;9.410;2023-06-26T12:21:53;25.00;99.90
13711;DHT22;6927;51.256;9.410;2023-06-26T12:24:22;25.10;99.90
13711;DHT22;6927;51.256;9.410;2023-06-26T12:26:53;25.10;99.90
13711;DHT22;6927;51.256;9.410;2023-06-26T12:29:20;25.20;99.90
13711;DHT22;6927;51.256;9.410;2023-06-26T12:31:50;25.60;99.90
13711;DHT22;6927;51.256;9.410;2023-06-26T12:34:19;25.70;99.90
13711;DHT22;6927;51.256;9.410;2023-06-26T12:36:49;26.00;99.90
13711;DHT22;6927;51.256;9.410;2023-06-26T12:39:19;26.10;99.90
13711;DHT22;6927;51.256;9.410;2023-06-26T12:41:52;26.20;99.90
13711;DHT22;6927;51.256;9.410;2023-06-26T12:44:26;26.10;99.90
13711;DHT22;6927;51.256;9.410;2023-06-26T12:46:57;26.20;99.90
13711;DHT22;6927;51.256;9.410;2023-06-26T12:49:36;26.30;99.90
13711;DHT22;6927;51.256;9.410;2023-06-26T12:52:10;26.40;99.90
13711;DHT22;6927;51.256;9.410;2023-06-26T12:54:38;26.30;99.90
13711;DHT22;6927;51.256;9.410;2023-06-26T12:57:04;26.20;99.90
13711;DHT22;6927;51.256;9.410;2023-06-26T12:59:33;26.30;99.90
13711;DHT22;6927;51.256;9.410;2023-06-26T13:02:00;26.50;99.90
13711;DHT22;6927;51.256;9.410;2023-06-26T13:04:26;26.40;99.90
13711;DHT22;6927;51.256;9.410;2023-06-26T13:06:52;26.40;99.90
13711;DHT22;6927;51.256;9.410;2023-06-26T13:09:20;26.30;99.90
13711;DHT22;6927;51.256;9.410;2023-06-26T13:11:46;26.30;99.90
13711;DHT22;6927;51.256;9.410;2023-06-26T13:14:12;26.30;99.90
13711;DHT22;6927;51.256;9.410;2023-06-26T13:16:37;26.20;99.90
13711;DHT22;6927;51.256;9.410;2023-06-26T13:19:03;26.30;99.90
13711;DHT22;6927;51.256;9.410;2023-06-26T13:21:29;26.30;99.90
13711;DHT22;6927;51.256;9.410;2023-06-26T13:23:55;26.10;99.90
13711;DHT22;6927;51.256;9.410;2023-06-26T13:26:21;26.10;99.90
13711;DHT22;6927;51.256;9.410;2023-06-26T13:28:50;26.30;99.90
13711;DHT22;6927;51.256;9.410;2023-06-26T13:31:16;26.60;99.90
13711;DHT22;6927;51.256;9.410;2023-06-26T13:33:41;26.90;99.90
13711;DHT22;6927;51.256;9.410;2023-06-26T13:36:07;27.10;99.90
13711;DHT22;6927;51.256;9.410;2023-06-26T13:38:33;27.10;99.90
13711;DHT22;6927;51.256;9.410;2023-06-26T13:40:59;27.00;99.90
13711;DHT22;6927;51.256;9.410;2023-06-26T13:43:29;26.60;99.90
13711;DHT22;6927;51.256;9.410;2023-06-26T13:45:55;26.50;99.90
13711;DHT22;6927;51.256;9.410;2023-06-26T13:48:21;26.70;99.90
13711;DHT22;6927;51.256;9.410;2023-06-26T13:50:47;26.80;99.90
13711;DHT22;6927;51.256;9.410;2023-06-26T13:53:13;27.00;99.90
13711;DHT22;6927;51.256;9.410;2023-06-26T13:55:40;27.10;99.90
13711;DHT22;6927;51.256;9.410;2023-06-26T13:58:06;27.20;99.90
13711;DHT22;6927;51.256;9.410;2023-06-26T14:00:32;27.00;99.90
13711;DHT22;6927;51.256;9.410;2023-06-26T14:02:59;26.90;99.90
13711;DHT22;6927;51.256;9.410;2023-06-26T14:05:25;26.70;99.90
13711;DHT22;6927;51.256;9.410;2023-06-26T14:07:50;26.50;99.90
13711;DHT22;6927;51.256;9.410;2023-06-26T14:10:16;26.50;99.90
13711;DHT22;6927;51.256;9.410;2023-06-26T14:12:41;26.50;99.90
13711;DHT22;6927;51.256;9.410;2023-06-26T14:15:07;26.20;99.90
13711;DHT22;6927;51.256;9.410;2023-06-26T14:17:33;26.10;99.90
13711;DHT22;6927;51.256;9.410;2023-06-26T14:19:58;25.90;99.90
13711;DHT22;6927;51.256;9.410;2023-06-26T14:22:24;25.80;99.90
13711;DHT22;6927;51.256;9.410;2023-06-26T14:24:50;25.70;99.90
13711;DHT22;6927;51.256;9.410;2023-06-26T14:27:16;25.80;99.90
13711;DHT22;6927;51.256;9.410;2023-06-26T14:29:41;25.90;99.90
13711;DHT22;6927;51.256;9.410;2023-06-26T14:32:07;26.20;99.90
13711;DHT22;6927;51.256;9.410;2023-06-26T14:34:32;26.40;99.90
13711;DHT22;6927;51.256;9.410;2023-06-26T14:36:58;26.50;99.90
13711;DHT22;6927;51.256;9.410;2023-06-26T14:39:24;26.60;99.90
13711;DHT22;6927;51.256;9.410;2023-06-26T14:41:49;26.70;99.90
13711;DHT22;6927;51.256;9.410;2023-06-26T14:44:15;26.90;99.90
13711;DHT22;6927;51.256;9.410;2023-06-26T14:46:41;27.00;99.90
13711;DHT22;6927;51.256;9.410;2023-06-26T14:49:06;26.80;99.90
13711;DHT22;6927;51.256;9.410;2023-06-26T14:51:32;26.50;99.90
13711;DHT22;6927;51.256;9.410;2023-06-26T14:53:57;26.10;99.90
13711;DHT22;6927;51.256;9.410;2023-06-26T14:56:23;26.00;99.90
13711;DHT22;6927;51.256;9.410;2023-06-26T14:58:50;25.90;99.90
13711;DHT22;6927;51.256;9.410;2023-06-26T15:01:20;26.10;99.90
13711;DHT22;6927;51.256;9.410;2023-06-26T15:03:47;26.30;99.90
13711;DHT22;6927;51.256;9.410;2023-06-26T15:06:12;26.30;99.90
13711;DHT22;6927;51.256;9.410;2023-06-26T15:08:38;25.90;99.90
13711;DHT22;6927;51.256;9.410;2023-06-26T15:11:03;25.80;99.90
13711;DHT22;6927;51.256;9.410;2023-06-26T15:13:29;25.70;99.90
13711;DHT22;6927;51.256;9.410;2023-06-26T15:15:55;25.50;99.90
13711;DHT22;6927;51.256;9.410;2023-06-26T15:18:20;25.40;99.90
13711;DHT22;6927;51.256;9.410;2023-06-26T15:20:46;25.20;99.90
13711;DHT22;6927;51.256;9.410;2023-06-26T15:23:11;25.10;99.90
13711;DHT22;6927;51.256;9.410;2023-06-26T15:25:37;25.20;99.90
13711;DHT22;6927;51.256;9.410;2023-06-26T15:28:04;25.20;99.90
13711;DHT22;6927;51.256;9.410;2023-06-26T15:30:29;25.00;99.90
13711;DHT22;6927;51.256;9.410;2023-06-26T15:32:55;24.90;99.90
13711;DHT22;6927;51.256;9.410;2023-06-26T15:35:20;24.80;99.90
13711;DHT22;6927;51.256;9.410;2023-06-26T15:37:46;24.90;99.90
13711;DHT22;6927;51.256;9.410;2023-06-26T15:40:12;24.80;99.90
13711;DHT22;6927;51.256;9.410;2023-06-26T15:42:49;24.80;99.90
13711;DHT22;6927;51.256;9.410;2023-06-26T15:45:15;24.70;99.90
13711;DHT22;6927;51.256;9.410;2023-06-26T15:47:43;24.50;99.90
13711;DHT22;6927;51.256;9.410;2023-06-26T15:50:09;24.20;99.90
13711;DHT22;6927;51.256;9.410;2023-06-26T15:52:35;24.00;99.90
13711;DHT22;6927;51.256;9.410;2023-06-26T15:55:01;23.90;99.90
13711;DHT22;6927;51.256;9.410;2023-06-26T15:57:27;23.80;99.90
13711;DHT22;6927;51.256;9.410;2023-06-26T15:59:52;23.70;99.90